04I weather

Columbus Southwest Airport
Columbus, Ohio, United States

Public forecast

Using degrees Fahrenheit for public forecast. Weather courtesy of forecast.io.

METAR (pilot weather report)

Closest report is Bolton Field, 2.5 nm (4.6 km) ESE. Retrieved 2019/05/21 08:15 UTC (0 seconds ago):

KTZR 210815Z AUTO 01004KT 10SM SCT031 08/06 A3011 RMK AO2 T00800060

TAF (pilot weather forecast)

Closest forecast is Rickenbacker International Airport, 13.4 nm (24.8 km) ESE. Retrieved 2019/05/21 06:58 UTC (1 hour ago):

TAF KLCK 210536Z 2106/2206 02006KT P6SM FEW030 BKN250 FM211400 07007KT P6SM BKN120 FM212300 06009KT P6SM SCT100